createdAt,value
2017-03-15T00:00:20.400Z,8.9
2017-03-15T00:10:35.274Z,9
2017-03-15T00:20:50.342Z,8.9
2017-03-15T00:31:03.519Z,8.9
2017-03-15T00:41:18.577Z,9
2017-03-15T00:51:32.359Z,9.1
2017-03-15T01:01:45.821Z,9
2017-03-15T01:12:00.373Z,9
2017-03-15T01:22:15.233Z,9.1
2017-03-15T01:32:29.334Z,9.1
2017-03-15T01:42:44.096Z,9.2
2017-03-15T01:52:58.245Z,9.1
2017-03-15T02:03:12.384Z,9.2
2017-03-15T02:13:26.740Z,9.2
2017-03-15T02:23:41.307Z,9.2
2017-03-15T02:33:54.575Z,9.2
2017-03-15T02:44:09.491Z,9.2
2017-03-15T02:54:23.027Z,9.1
2017-03-15T03:04:38.109Z,9.1
2017-03-15T03:14:52.375Z,8.8
2017-03-15T03:25:06.144Z,8.8
2017-03-15T03:35:20.999Z,8.5
2017-03-15T03:45:34.424Z,8.8
2017-03-15T03:55:49.271Z,8.5
2017-03-15T04:06:03.898Z,8.3
2017-03-15T04:16:18.029Z,8.3
2017-03-15T04:26:33.351Z,8.2
2017-03-15T04:36:47.056Z,8.2
2017-03-15T04:47:01.929Z,7.9
2017-03-15T04:57:15.721Z,7.9
2017-03-15T05:07:29.652Z,7.9
2017-03-15T05:17:43.356Z,7.7
2017-03-15T05:27:57.160Z,7.7
2017-03-15T05:38:11.422Z,7.8
2017-03-15T05:48:26.241Z,7.8
2017-03-15T05:58:39.929Z,7.9
2017-03-15T06:08:54.391Z,7.8
2017-03-15T06:19:07.883Z,7.7
2017-03-15T06:29:22.402Z,7.9
2017-03-15T06:39:37.299Z,8.2
2017-03-15T06:49:52.034Z,8.4
2017-03-15T07:00:06.222Z,8.6
2017-03-15T07:10:20.926Z,9
2017-03-15T07:20:34.098Z,9.3
2017-03-15T07:30:47.399Z,9.5
2017-03-15T07:41:01.409Z,9.7
2017-03-15T07:51:16.178Z,9.8
2017-03-15T08:01:31.399Z,10.1
2017-03-15T08:11:45.523Z,10.6
2017-03-15T08:21:58.817Z,10.9
2017-03-15T08:32:12.928Z,11.1
2017-03-15T08:42:26.930Z,10.9
2017-03-15T08:52:41.730Z,11.4
2017-03-15T09:02:56.026Z,11.4
2017-03-15T09:13:09.963Z,12.1
2017-03-15T09:23:23.862Z,11.7
2017-03-15T09:33:38.819Z,11.8
2017-03-15T09:43:52.159Z,12
2017-03-15T09:54:05.772Z,12.2
2017-03-15T10:04:20.594Z,12.7
2017-03-15T10:14:36.167Z,12.2
2017-03-15T11:46:42.401Z,13.6
2017-03-15T11:56:56.166Z,13.8
2017-03-15T12:07:10.705Z,13.9
2017-03-15T12:17:24.831Z,14.1
2017-03-15T12:27:39.933Z,13.7
2017-03-15T12:37:54.537Z,14.8
2017-03-15T12:48:07.719Z,15.1
2017-03-15T12:58:22.468Z,14.9
2017-03-15T13:08:36.322Z,15
2017-03-15T13:18:50.842Z,14.6
2017-03-15T13:29:05.612Z,15
2017-03-15T13:39:18.795Z,14.8
2017-03-15T13:49:33.888Z,15.5
2017-03-15T13:59:47.653Z,15
2017-03-15T14:10:01.388Z,15.8
2017-03-15T14:20:15.399Z,15.3
2017-03-15T14:30:29.520Z,15.1
2017-03-15T14:40:43.130Z,15.5
2017-03-15T14:50:58.141Z,15.2
2017-03-15T15:01:12.397Z,15.3
2017-03-15T15:11:27.585Z,15.3
2017-03-15T15:21:41.631Z,14.6
2017-03-15T15:31:56.254Z,14.3
2017-03-15T15:42:11.135Z,14.7
2017-03-15T15:52:25.604Z,14.7
2017-03-15T16:02:39.152Z,14.1
2017-03-15T16:12:53.212Z,13.9
2017-03-15T16:23:06.689Z,13.6
2017-03-15T16:33:21.437Z,13.3
2017-03-15T16:43:35.537Z,12.7
2017-03-15T16:53:49.415Z,11.8
2017-03-15T17:04:03.178Z,11.5
2017-03-15T17:14:16.321Z,11
2017-03-15T17:24:29.870Z,10.6
2017-03-15T17:34:43.578Z,10.3
2017-03-15T17:44:57.679Z,9.7
2017-03-15T17:55:11.040Z,9.1
2017-03-15T18:05:25.477Z,8.9
2017-03-15T18:15:39.249Z,8.3
2017-03-15T18:25:53.528Z,8.4
2017-03-15T18:36:06.711Z,7.4
2017-03-15T18:46:20.855Z,7.8
2017-03-15T18:56:35.714Z,7.1
2017-03-15T19:06:49.049Z,7.5
2017-03-15T19:17:02.244Z,7.9
2017-03-15T19:27:17.056Z,8.3
2017-03-15T19:37:32.075Z,8.2
2017-03-15T19:47:46.955Z,7.6
2017-03-15T20:08:15.332Z,6.8
2017-03-15T20:18:29.523Z,6.8
2017-03-15T20:28:44.309Z,7.4
2017-03-15T20:38:59.247Z,7.6
2017-03-15T20:49:13.618Z,7.6
2017-03-15T20:59:27.652Z,7.4
2017-03-15T21:09:41.823Z,7.6
2017-03-15T21:19:54.985Z,7.6
2017-03-15T21:30:10.052Z,7.5
2017-03-15T21:40:23.823Z,7.6
2017-03-15T21:50:38.162Z,6.9
2017-03-15T22:00:51.334Z,6.7
2017-03-15T22:11:05.606Z,5.7
2017-03-15T22:21:19.727Z,4.6
2017-03-15T22:31:33.365Z,4.6
2017-03-15T22:41:47.514Z,4.9
2017-03-15T22:52:00.618Z,4.2
2017-03-15T23:02:14.259Z,3.5
2017-03-15T23:12:27.422Z,4.3
2017-03-15T23:22:41.796Z,4.6
2017-03-15T23:32:56.005Z,4.3
2017-03-15T23:43:09.897Z,3.9
2017-03-15T23:53:24.386Z,3.5
